createdAt,value
2023-03-24T00:03:25.480Z,4.95
2023-03-24T00:08:34.452Z,4.95
2023-03-24T00:13:43.506Z,4.95
2023-03-24T00:18:51.329Z,4.95
2023-03-24T00:24:03.982Z,4.95
2023-03-24T00:29:11.670Z,4.95
2023-03-24T00:34:19.501Z,4.95
2023-03-24T00:39:27.232Z,4.95
2023-03-24T00:44:34.919Z,4.95
2023-03-24T00:49:51.761Z,4.95
2023-03-24T00:54:59.282Z,4.95
2023-03-24T01:00:07.011Z,4.95
2023-03-24T01:06:08.642Z,4.95
2023-03-24T01:10:36.145Z,4.95
2023-03-24T01:15:43.829Z,4.95
2023-03-24T01:21:03.056Z,4.95
2023-03-24T01:26:10.495Z,4.95
2023-03-24T01:31:29.030Z,4.95
2023-03-24T01:36:36.452Z,4.95
2023-03-24T01:41:50.301Z,4.95
2023-03-24T01:46:57.658Z,4.95
2023-03-24T01:52:05.065Z,5.41
2023-03-24T01:57:12.614Z,5.41
2023-03-24T02:02:19.985Z,5.41
2023-03-24T02:07:27.572Z,5.41
2023-03-24T02:12:35.303Z,5.41
2023-03-24T02:17:42.647Z,4.54
2023-03-24T02:22:50.233Z,4.54
2023-03-24T02:27:57.729Z,4.54
2023-03-24T02:33:05.129Z,4.54
2023-03-24T02:38:12.451Z,4.54
2023-03-24T02:43:27.410Z,4.54
2023-03-24T02:48:32.703Z,4.54
2023-03-24T02:53:40.189Z,4.54
2023-03-24T02:58:47.727Z,4.98
2023-03-24T03:03:59.835Z,4.98
2023-03-24T03:09:44.247Z,4.98
2023-03-24T03:14:51.599Z,4.98
2023-03-24T03:19:59.184Z,4.98
2023-03-24T03:25:06.486Z,4.98
2023-03-24T03:30:14.137Z,4.98
2023-03-24T03:35:21.628Z,4.54
2023-03-24T03:40:29.148Z,4.98
2023-03-24T03:45:36.680Z,4.98
2023-03-24T03:50:44.369Z,4.98
2023-03-24T03:55:51.773Z,4.54
2023-03-24T04:01:03.189Z,4.54
2023-03-24T04:06:15.348Z,4.98
2023-03-24T04:11:22.708Z,4.98
2023-03-24T04:16:30.344Z,4.98
2023-03-24T04:21:37.843Z,4.98
2023-03-24T04:26:45.374Z,5.41
2023-03-24T04:31:52.946Z,4.53
2023-03-24T04:37:00.140Z,4.53
2023-03-24T04:42:07.575Z,4.53
2023-03-24T04:47:15.132Z,4.94
2023-03-24T04:52:22.504Z,4.94
2023-03-24T04:57:29.743Z,4.94
2023-03-24T05:02:37.127Z,4.94
2023-03-24T05:07:44.250Z,4.94
2023-03-24T05:12:51.454Z,4.94
2023-03-24T05:17:58.812Z,4.94
2023-03-24T05:23:06.057Z,4.94
2023-03-24T05:28:13.243Z,4.94
2023-03-24T05:33:20.579Z,4.94
2023-03-24T05:38:27.723Z,4.94
2023-03-24T05:43:34.909Z,4.94
2023-03-24T05:48:42.100Z,4.94
2023-03-24T05:53:49.243Z,4.94
2023-03-24T05:58:56.450Z,5.35
2023-03-24T06:04:03.748Z,4.94
2023-03-24T06:09:10.813Z,4.94
2023-03-24T06:14:18.095Z,4.53
2023-03-24T06:19:25.389Z,4.53
2023-03-24T06:24:32.657Z,4.94
2023-03-24T06:29:39.867Z,4.94
2023-03-24T06:34:47.061Z,4.53
2023-03-24T06:39:54.226Z,4.53
2023-03-24T06:45:01.435Z,4.94
2023-03-24T06:50:08.705Z,5.35
2023-03-24T06:55:15.871Z,4.46
2023-03-24T07:00:23.151Z,4.94
2023-03-24T07:05:30.347Z,4.94
2023-03-24T07:10:37.514Z,4.94
2023-03-24T07:15:44.682Z,4.94
2023-03-24T07:20:51.917Z,4.94
2023-03-24T07:25:59.120Z,4.94
2023-03-24T07:31:06.374Z,4.94
2023-03-24T07:36:13.701Z,4.94
2023-03-24T07:41:20.725Z,5.35
2023-03-24T07:46:27.944Z,4.94
2023-03-24T07:51:38.482Z,4.94
2023-03-24T07:56:42.319Z,4.94
2023-03-24T08:01:51.497Z,4.94
2023-03-24T08:06:56.845Z,5.35
2023-03-24T08:12:13.519Z,5.35
2023-03-24T08:17:11.130Z,5.35
2023-03-24T08:22:18.450Z,5.35
2023-03-24T08:27:25.582Z,5.35
2023-03-24T08:32:32.796Z,5.74
2023-03-24T08:37:40.004Z,5.35
2023-03-24T08:42:47.165Z,5.74
2023-03-24T08:47:54.445Z,5.74
2023-03-24T08:53:01.644Z,5.74
2023-03-24T08:58:08.780Z,5.74
2023-03-24T09:03:15.981Z,5.74
2023-03-24T09:08:23.209Z,6.13
2023-03-24T09:13:30.358Z,6.13
2023-03-24T09:18:37.530Z,6.13
2023-03-24T09:23:44.918Z,6.13
2023-03-24T09:28:52.007Z,6.13
2023-03-24T09:33:59.400Z,6.13
2023-03-24T09:39:06.609Z,5.74
2023-03-24T09:44:13.847Z,5.35
2023-03-24T09:49:21.247Z,5.35
2023-03-24T09:54:28.591Z,5.35
2023-03-24T09:59:35.852Z,5.74
2023-03-24T10:04:43.188Z,6.13
2023-03-24T10:09:50.476Z,6.88
2023-03-24T10:14:57.798Z,7.03
2023-03-24T10:20:05.094Z,7.24
2023-03-24T10:25:12.457Z,6.69
2023-03-24T10:30:19.592Z,6.69
2023-03-24T10:35:26.796Z,6.34
2023-03-24T10:40:34.044Z,6.88
2023-03-24T10:45:41.268Z,6.88
2023-03-24T10:50:48.401Z,6.88
2023-03-24T10:55:55.662Z,7.24
2023-03-24T11:01:03.024Z,7.24
2023-03-24T11:06:10.048Z,6.88
2023-03-24T11:11:17.219Z,6.88
2023-03-24T11:16:24.453Z,6.51
2023-03-24T11:21:31.616Z,6.51
2023-03-24T11:26:38.807Z,6.88
2023-03-24T11:31:45.942Z,6.51
2023-03-24T11:36:53.317Z,6.88
2023-03-24T11:42:00.494Z,6.51
2023-03-24T11:47:07.746Z,6.51
2023-03-24T11:52:14.969Z,6.88
2023-03-24T11:57:22.192Z,7.24
2023-03-24T12:02:29.383Z,7.24
2023-03-24T12:07:36.590Z,7.24
2023-03-24T12:12:43.843Z,6.88
2023-03-24T12:17:51.017Z,6.88
2023-03-24T12:22:58.199Z,6.88
2023-03-24T12:28:05.401Z,6.88
2023-03-24T12:33:12.656Z,6.51
2023-03-24T12:38:19.873Z,6.51
2023-03-24T12:43:27.071Z,6.88
2023-03-24T12:48:34.210Z,6.13
2023-03-24T12:53:41.389Z,6.13
2023-03-24T12:58:48.612Z,6.88
2023-03-24T13:03:55.859Z,6.88
2023-03-24T13:09:03.047Z,7.24
2023-03-24T13:14:10.351Z,7.03
2023-03-24T13:19:17.548Z,6.69
2023-03-24T13:24:24.801Z,6.34
2023-03-24T13:29:41.787Z,6.69
2023-03-24T13:34:39.270Z,7.03
2023-03-24T13:39:46.497Z,6.69
2023-03-24T13:44:53.732Z,6.34
2023-03-24T13:50:00.962Z,5.98
2023-03-24T13:55:08.126Z,6.51
2023-03-24T14:00:15.327Z,6.88
2023-03-24T14:05:22.520Z,6.88
2023-03-24T14:10:29.683Z,6.51
2023-03-24T14:15:36.971Z,6.51
2023-03-24T14:20:44.141Z,6.51
2023-03-24T14:25:52.397Z,6.88
2023-03-24T14:30:59.653Z,6.88
2023-03-24T14:36:07.038Z,6.88
2023-03-24T14:41:14.057Z,6.88
2023-03-24T14:46:21.373Z,6.34
2023-03-24T14:51:28.449Z,5.98
2023-03-24T14:56:35.691Z,5.98
2023-03-24T15:01:42.883Z,5.98
2023-03-24T15:06:49.993Z,6.69
2023-03-24T15:11:57.262Z,6.34
2023-03-24T15:17:04.481Z,6.34
2023-03-24T15:22:11.664Z,6.34
2023-03-24T15:27:18.867Z,5.98
2023-03-24T15:32:26.080Z,5.98
2023-03-24T15:37:33.263Z,5.98
2023-03-24T15:42:40.508Z,5.98
2023-03-24T15:47:47.763Z,5.98
2023-03-24T15:52:54.865Z,5.98
2023-03-24T15:58:02.151Z,5.98
2023-03-24T16:03:09.585Z,5.98
2023-03-24T16:08:16.644Z,5.98
2023-03-24T16:13:23.987Z,5.98
2023-03-24T16:18:31.210Z,5.61
2023-03-24T16:23:38.412Z,5.98
2023-03-24T16:28:45.565Z,5.98
2023-03-24T16:33:52.774Z,6.69
2023-03-24T16:38:59.936Z,5.98
2023-03-24T16:44:07.084Z,6.51
2023-03-24T16:49:14.349Z,6.51
2023-03-24T16:54:21.551Z,6.13
2023-03-24T16:59:28.990Z,6.13
2023-03-24T17:04:36.584Z,6.13
2023-03-24T17:09:43.569Z,6.13
2023-03-24T17:14:50.824Z,5.74
2023-03-24T17:19:58.340Z,6.63
2023-03-24T17:25:06.553Z,6.63
2023-03-24T17:30:13.693Z,6.23
2023-03-24T17:35:20.957Z,6.23
2023-03-24T17:40:28.158Z,5.83
2023-03-24T17:45:35.414Z,5.83
2023-03-24T17:50:42.692Z,5.83
2023-03-24T17:55:50.190Z,6.71
2023-03-24T18:00:57.868Z,6.71
2023-03-24T18:06:05.227Z,6.71
2023-03-24T18:11:12.768Z,6.71
2023-03-24T18:16:21.826Z,6.71
2023-03-24T18:21:27.294Z,6.29
2023-03-24T18:26:34.842Z,6.29
2023-03-24T18:31:44.123Z,6.29
2023-03-24T18:36:51.786Z,6.29
2023-03-24T18:41:59.422Z,6.29
2023-03-24T18:47:07.046Z,5.85
2023-03-24T18:52:14.512Z,5.85
2023-03-24T18:57:22.065Z,5.85
2023-03-24T19:02:29.735Z,5.85
2023-03-24T19:07:37.417Z,6.29
2023-03-24T19:12:44.938Z,5.85
2023-03-24T19:17:52.653Z,6.73
2023-03-24T19:23:00.273Z,6.73
2023-03-24T19:28:07.861Z,6.73
2023-03-24T19:33:15.287Z,6.73
2023-03-24T19:38:22.920Z,6.73
2023-03-24T19:43:30.492Z,6.28
2023-03-24T19:48:38.021Z,6.73
2023-03-24T19:53:45.746Z,6.73
2023-03-24T19:58:53.644Z,6.73
2023-03-24T20:04:01.324Z,6.73
2023-03-24T20:09:09.003Z,6.73
2023-03-24T20:14:16.610Z,6.73
2023-03-24T20:19:24.215Z,6.28
2023-03-24T20:24:31.947Z,6.28
2023-03-24T20:29:39.697Z,6.73
2023-03-24T20:34:47.356Z,6.28
2023-03-24T20:39:54.812Z,6.28
2023-03-24T20:45:02.021Z,6.73
2023-03-24T20:50:09.235Z,6.28
2023-03-24T20:55:16.835Z,6.28
2023-03-24T21:00:24.404Z,6.28
2023-03-24T21:05:32.118Z,6.28
2023-03-24T21:10:42.734Z,6.73
2023-03-24T21:15:50.332Z,6.73
2023-03-24T21:20:57.443Z,6.28
2023-03-24T21:26:04.971Z,6.73
2023-03-24T21:31:12.400Z,6.28
2023-03-24T21:36:19.621Z,6.73
2023-03-24T21:41:26.859Z,6.28
2023-03-24T21:46:33.988Z,6.28
2023-03-24T21:51:41.194Z,7.15
2023-03-24T21:56:48.625Z,7.15
2023-03-24T22:01:55.940Z,7.15
2023-03-24T22:07:03.160Z,7.15
2023-03-24T22:12:10.468Z,7.15
2023-03-24T22:17:17.820Z,7.15
2023-03-24T22:22:25.004Z,7.15
2023-03-24T22:27:32.338Z,7.15
2023-03-24T22:32:39.692Z,7.15
2023-03-24T22:37:46.850Z,7.15
2023-03-24T22:42:54.073Z,7.15
2023-03-24T22:48:01.362Z,7.15
2023-03-24T22:53:08.559Z,7.15
2023-03-24T22:58:15.900Z,7.15
2023-03-24T23:03:23.220Z,6.69
2023-03-24T23:08:30.369Z,7.15
2023-03-24T23:13:37.631Z,7.15
2023-03-24T23:18:44.794Z,7.15
2023-03-24T23:23:52.015Z,7.15
2023-03-24T23:28:59.234Z,7.15
2023-03-24T23:34:06.505Z,6.69
2023-03-24T23:39:13.659Z,5.72
2023-03-24T23:44:20.896Z,6.21
2023-03-24T23:49:28.161Z,4.36
2023-03-24T23:54:35.432Z,5.72
2023-03-24T23:59:42.736Z,5.72
